Terminal Aerodrome Forecast
Issued by NWS Rapid City, SD

Home | Current Version | Previous Version | Text Only | Print | Product List | Glossary On
Versions: 1 2 3 4 5 6 7 8 9 10 11 12 13 14 15 16
579
FTUS43 KUNR 260520
TAFRAP
TAF
KRAP 260520Z 2606/2706 34010KT P6SM BKN150
     FM261200 35016KT P6SM -RA BKN015 OVC040
     FM262200 36008KT P6SM BKN020=

USA.gov is the U.S. government's official web portal to all federal, state and local government web resources and services.